sensor_id;sensor_type;location;lat;lon;timestamp;P1;durP1;ratioP1;P2;durP2;ratioP2
31728;SDS011;18309;43.658;1.312;2023-11-18T00:01:14;25.92;;;10.52;;
31728;SDS011;18309;43.658;1.312;2023-11-18T00:03:40;29.20;;;10.50;;
31728;SDS011;18309;43.658;1.312;2023-11-18T00:06:06;26.35;;;11.10;;
31728;SDS011;18309;43.658;1.312;2023-11-18T00:08:32;27.92;;;11.38;;
31728;SDS011;18309;43.658;1.312;2023-11-18T00:10:58;25.20;;;10.07;;
31728;SDS011;18309;43.658;1.312;2023-11-18T00:13:24;25.52;;;10.77;;
31728;SDS011;18309;43.658;1.312;2023-11-18T00:15:51;31.58;;;11.98;;
31728;SDS011;18309;43.658;1.312;2023-11-18T00:18:17;29.83;;;11.95;;
31728;SDS011;18309;43.658;1.312;2023-11-18T00:20:44;38.72;;;11.35;;
31728;SDS011;18309;43.658;1.312;2023-11-18T00:23:10;19.52;;;9.63;;
31728;SDS011;18309;43.658;1.312;2023-11-18T00:25:35;23.52;;;9.85;;
31728;SDS011;18309;43.658;1.312;2023-11-18T00:28:04;26.95;;;9.38;;
31728;SDS011;18309;43.658;1.312;2023-11-18T00:30:32;23.25;;;8.88;;
31728;SDS011;18309;43.658;1.312;2023-11-18T00:32:58;26.92;;;9.65;;
31728;SDS011;18309;43.658;1.312;2023-11-18T00:35:23;21.00;;;8.80;;
31728;SDS011;18309;43.658;1.312;2023-11-18T00:37:49;17.73;;;8.38;;
31728;SDS011;18309;43.658;1.312;2023-11-18T00:40:15;25.80;;;9.43;;
31728;SDS011;18309;43.658;1.312;2023-11-18T00:42:43;21.35;;;7.85;;
31728;SDS011;18309;43.658;1.312;2023-11-18T00:45:10;20.08;;;7.90;;
31728;SDS011;18309;43.658;1.312;2023-11-18T00:47:39;21.55;;;7.95;;
31728;SDS011;18309;43.658;1.312;2023-11-18T00:50:06;23.58;;;7.38;;
31728;SDS011;18309;43.658;1.312;2023-11-18T00:52:33;25.77;;;6.65;;
31728;SDS011;18309;43.658;1.312;2023-11-18T00:54:59;24.15;;;7.22;;
31728;SDS011;18309;43.658;1.312;2023-11-18T00:57:26;12.25;;;6.63;;
31728;SDS011;18309;43.658;1.312;2023-11-18T00:59:52;14.95;;;6.88;;
31728;SDS011;18309;43.658;1.312;2023-11-18T01:02:17;19.80;;;7.10;;
31728;SDS011;18309;43.658;1.312;2023-11-18T01:04:44;21.83;;;7.35;;
31728;SDS011;18309;43.658;1.312;2023-11-18T01:07:12;21.40;;;7.30;;
31728;SDS011;18309;43.658;1.312;2023-11-18T01:09:38;24.55;;;7.18;;
31728;SDS011;18309;43.658;1.312;2023-11-18T01:12:04;17.08;;;7.07;;
31728;SDS011;18309;43.658;1.312;2023-11-18T01:14:34;22.42;;;8.00;;
31728;SDS011;18309;43.658;1.312;2023-11-18T01:17:01;19.73;;;7.75;;
31728;SDS011;18309;43.658;1.312;2023-11-18T01:19:27;21.15;;;8.18;;
31728;SDS011;18309;43.658;1.312;2023-11-18T01:21:53;21.27;;;7.32;;
31728;SDS011;18309;43.658;1.312;2023-11-18T01:24:18;21.10;;;6.78;;
31728;SDS011;18309;43.658;1.312;2023-11-18T01:26:45;17.52;;;7.10;;
31728;SDS011;18309;43.658;1.312;2023-11-18T01:29:10;21.92;;;7.00;;
31728;SDS011;18309;43.658;1.312;2023-11-18T01:31:36;20.65;;;6.07;;
31728;SDS011;18309;43.658;1.312;2023-11-18T01:34:02;17.70;;;6.82;;
31728;SDS011;18309;43.658;1.312;2023-11-18T01:36:30;16.45;;;6.18;;
31728;SDS011;18309;43.658;1.312;2023-11-18T01:38:56;13.25;;;6.10;;
31728;SDS011;18309;43.658;1.312;2023-11-18T01:41:21;19.58;;;7.00;;
31728;SDS011;18309;43.658;1.312;2023-11-18T01:43:47;16.73;;;6.30;;
31728;SDS011;18309;43.658;1.312;2023-11-18T01:46:13;22.88;;;7.45;;
31728;SDS011;18309;43.658;1.312;2023-11-18T01:48:39;17.75;;;6.35;;
31728;SDS011;18309;43.658;1.312;2023-11-18T01:51:07;16.98;;;6.63;;
31728;SDS011;18309;43.658;1.312;2023-11-18T01:53:35;18.05;;;5.72;;
31728;SDS011;18309;43.658;1.312;2023-11-18T01:56:05;19.08;;;6.35;;
31728;SDS011;18309;43.658;1.312;2023-11-18T01:58:32;11.35;;;5.68;;
31728;SDS011;18309;43.658;1.312;2023-11-18T02:01:00;18.05;;;5.70;;
31728;SDS011;18309;43.658;1.312;2023-11-18T02:03:27;16.55;;;5.90;;
31728;SDS011;18309;43.658;1.312;2023-11-18T02:05:53;13.85;;;5.78;;
31728;SDS011;18309;43.658;1.312;2023-11-18T02:08:19;12.73;;;5.20;;
31728;SDS011;18309;43.658;1.312;2023-11-18T02:11:05;11.48;;;5.60;;
31728;SDS011;18309;43.658;1.312;2023-11-18T02:13:49;15.10;;;5.90;;
31728;SDS011;18309;43.658;1.312;2023-11-18T02:16:18;16.42;;;5.57;;
31728;SDS011;18309;43.658;1.312;2023-11-18T02:18:45;15.55;;;6.53;;
31728;SDS011;18309;43.658;1.312;2023-11-18T02:21:12;17.63;;;5.65;;
31728;SDS011;18309;43.658;1.312;2023-11-18T02:23:40;14.40;;;5.60;;
31728;SDS011;18309;43.658;1.312;2023-11-18T02:26:07;14.27;;;5.80;;
31728;SDS011;18309;43.658;1.312;2023-11-18T02:28:34;16.05;;;5.82;;
31728;SDS011;18309;43.658;1.312;2023-11-18T02:31:10;14.43;;;5.88;;
31728;SDS011;18309;43.658;1.312;2023-11-18T02:33:52;15.70;;;6.15;;
31728;SDS011;18309;43.658;1.312;2023-11-18T02:36:26;14.38;;;5.80;;
31728;SDS011;18309;43.658;1.312;2023-11-18T02:39:01;14.32;;;5.90;;
31728;SDS011;18309;43.658;1.312;2023-11-18T02:41:28;13.05;;;6.53;;
31728;SDS011;18309;43.658;1.312;2023-11-18T02:43:55;18.05;;;6.43;;
31728;SDS011;18309;43.658;1.312;2023-11-18T02:46:23;15.93;;;6.18;;
31728;SDS011;18309;43.658;1.312;2023-11-18T02:48:52;13.77;;;6.45;;
31728;SDS011;18309;43.658;1.312;2023-11-18T02:51:20;21.15;;;6.10;;
31728;SDS011;18309;43.658;1.312;2023-11-18T02:53:45;15.18;;;5.90;;
31728;SDS011;18309;43.658;1.312;2023-11-18T02:56:11;13.75;;;6.30;;
31728;SDS011;18309;43.658;1.312;2023-11-18T02:58:37;16.90;;;6.88;;
31728;SDS011;18309;43.658;1.312;2023-11-18T03:01:02;15.30;;;6.68;;
31728;SDS011;18309;43.658;1.312;2023-11-18T03:03:29;18.25;;;6.32;;
31728;SDS011;18309;43.658;1.312;2023-11-18T03:05:55;19.52;;;6.03;;
31728;SDS011;18309;43.658;1.312;2023-11-18T03:08:21;13.65;;;6.50;;
31728;SDS011;18309;43.658;1.312;2023-11-18T03:10:46;21.52;;;6.88;;
31728;SDS011;18309;43.658;1.312;2023-11-18T03:13:12;14.48;;;6.10;;
31728;SDS011;18309;43.658;1.312;2023-11-18T03:15:38;16.60;;;6.30;;
31728;SDS011;18309;43.658;1.312;2023-11-18T03:18:03;14.15;;;6.00;;
31728;SDS011;18309;43.658;1.312;2023-11-18T03:20:30;23.25;;;7.22;;
31728;SDS011;18309;43.658;1.312;2023-11-18T03:22:59;14.18;;;6.38;;
31728;SDS011;18309;43.658;1.312;2023-11-18T03:25:27;19.33;;;7.45;;
31728;SDS011;18309;43.658;1.312;2023-11-18T03:27:53;15.02;;;7.53;;
31728;SDS011;18309;43.658;1.312;2023-11-18T03:30:19;19.48;;;7.82;;
31728;SDS011;18309;43.658;1.312;2023-11-18T03:32:45;19.15;;;7.50;;
31728;SDS011;18309;43.658;1.312;2023-11-18T03:35:11;19.05;;;8.18;;
31728;SDS011;18309;43.658;1.312;2023-11-18T03:37:41;19.10;;;8.77;;
31728;SDS011;18309;43.658;1.312;2023-11-18T03:40:07;20.27;;;9.60;;
31728;SDS011;18309;43.658;1.312;2023-11-18T03:42:34;24.83;;;7.75;;
31728;SDS011;18309;43.658;1.312;2023-11-18T03:45:00;23.85;;;8.95;;
31728;SDS011;18309;43.658;1.312;2023-11-18T03:47:26;20.40;;;10.85;;
31728;SDS011;18309;43.658;1.312;2023-11-18T03:49:52;21.42;;;10.10;;
31728;SDS011;18309;43.658;1.312;2023-11-18T03:52:19;24.48;;;11.15;;
31728;SDS011;18309;43.658;1.312;2023-11-18T03:54:45;19.50;;;10.70;;
31728;SDS011;18309;43.658;1.312;2023-11-18T03:57:10;24.00;;;12.00;;
31728;SDS011;18309;43.658;1.312;2023-11-18T03:59:36;20.15;;;10.75;;
31728;SDS011;18309;43.658;1.312;2023-11-18T04:02:04;24.13;;;10.98;;
31728;SDS011;18309;43.658;1.312;2023-11-18T04:04:30;25.63;;;11.27;;
31728;SDS011;18309;43.658;1.312;2023-11-18T04:06:55;15.13;;;9.90;;
31728;SDS011;18309;43.658;1.312;2023-11-18T04:09:21;22.92;;;11.15;;
31728;SDS011;18309;43.658;1.312;2023-11-18T04:11:47;21.65;;;11.07;;
31728;SDS011;18309;43.658;1.312;2023-11-18T04:14:12;27.50;;;11.35;;
31728;SDS011;18309;43.658;1.312;2023-11-18T04:16:38;20.65;;;9.93;;
31728;SDS011;18309;43.658;1.312;2023-11-18T04:19:04;26.00;;;10.73;;
31728;SDS011;18309;43.658;1.312;2023-11-18T04:21:30;20.80;;;10.13;;
31728;SDS011;18309;43.658;1.312;2023-11-18T04:23:56;21.27;;;9.05;;
31728;SDS011;18309;43.658;1.312;2023-11-18T04:26:21;19.73;;;9.35;;
31728;SDS011;18309;43.658;1.312;2023-11-18T04:28:47;28.55;;;8.30;;
31728;SDS011;18309;43.658;1.312;2023-11-18T04:31:12;19.35;;;8.07;;
31728;SDS011;18309;43.658;1.312;2023-11-18T04:33:39;20.40;;;7.60;;
31728;SDS011;18309;43.658;1.312;2023-11-18T04:36:06;17.67;;;7.22;;
31728;SDS011;18309;43.658;1.312;2023-11-18T04:38:35;26.23;;;7.13;;
31728;SDS011;18309;43.658;1.312;2023-11-18T04:41:01;18.08;;;6.18;;
31728;SDS011;18309;43.658;1.312;2023-11-18T04:43:28;19.77;;;6.50;;
31728;SDS011;18309;43.658;1.312;2023-11-18T04:45:55;16.35;;;6.13;;
31728;SDS011;18309;43.658;1.312;2023-11-18T04:48:21;20.10;;;6.53;;
31728;SDS011;18309;43.658;1.312;2023-11-18T04:50:47;18.08;;;7.03;;
31728;SDS011;18309;43.658;1.312;2023-11-18T04:53:12;20.92;;;6.97;;
31728;SDS011;18309;43.658;1.312;2023-11-18T04:55:38;13.65;;;6.88;;
31728;SDS011;18309;43.658;1.312;2023-11-18T04:58:04;12.80;;;5.90;;
31728;SDS011;18309;43.658;1.312;2023-11-18T05:00:31;15.75;;;5.88;;
31728;SDS011;18309;43.658;1.312;2023-11-18T05:03:02;15.80;;;6.10;;
31728;SDS011;18309;43.658;1.312;2023-11-18T05:05:28;16.83;;;6.43;;
31728;SDS011;18309;43.658;1.312;2023-11-18T05:07:54;18.00;;;6.40;;
31728;SDS011;18309;43.658;1.312;2023-11-18T05:10:20;16.85;;;6.47;;
31728;SDS011;18309;43.658;1.312;2023-11-18T05:12:45;17.77;;;6.68;;
31728;SDS011;18309;43.658;1.312;2023-11-18T05:15:20;16.13;;;6.50;;
31728;SDS011;18309;43.658;1.312;2023-11-18T05:17:49;17.55;;;7.25;;
31728;SDS011;18309;43.658;1.312;2023-11-18T05:20:19;21.48;;;8.30;;
31728;SDS011;18309;43.658;1.312;2023-11-18T05:22:45;23.27;;;7.45;;
31728;SDS011;18309;43.658;1.312;2023-11-18T05:25:11;12.30;;;6.00;;
31728;SDS011;18309;43.658;1.312;2023-11-18T05:27:37;16.17;;;6.60;;
31728;SDS011;18309;43.658;1.312;2023-11-18T05:30:05;16.25;;;6.18;;
31728;SDS011;18309;43.658;1.312;2023-11-18T05:32:32;17.00;;;6.80;;
31728;SDS011;18309;43.658;1.312;2023-11-18T05:34:58;19.30;;;8.10;;
31728;SDS011;18309;43.658;1.312;2023-11-18T05:37:24;18.45;;;7.45;;
31728;SDS011;18309;43.658;1.312;2023-11-18T05:39:50;19.52;;;6.97;;
31728;SDS011;18309;43.658;1.312;2023-11-18T05:42:27;21.92;;;7.40;;
31728;SDS011;18309;43.658;1.312;2023-11-18T05:44:53;16.88;;;6.28;;
31728;SDS011;18309;43.658;1.312;2023-11-18T05:47:24;16.58;;;6.30;;
31728;SDS011;18309;43.658;1.312;2023-11-18T05:49:51;14.80;;;5.55;;
31728;SDS011;18309;43.658;1.312;2023-11-18T05:52:18;17.63;;;5.43;;
31728;SDS011;18309;43.658;1.312;2023-11-18T05:54:45;14.93;;;5.57;;
31728;SDS011;18309;43.658;1.312;2023-11-18T05:57:12;16.67;;;5.57;;
31728;SDS011;18309;43.658;1.312;2023-11-18T05:59:40;13.95;;;5.13;;
31728;SDS011;18309;43.658;1.312;2023-11-18T06:02:05;17.75;;;5.40;;
31728;SDS011;18309;43.658;1.312;2023-11-18T06:04:31;13.20;;;5.55;;
31728;SDS011;18309;43.658;1.312;2023-11-18T06:06:56;18.25;;;6.53;;
31728;SDS011;18309;43.658;1.312;2023-11-18T06:09:22;16.02;;;5.45;;
31728;SDS011;18309;43.658;1.312;2023-11-18T06:11:50;14.73;;;6.05;;
31728;SDS011;18309;43.658;1.312;2023-11-18T06:14:18;21.48;;;6.72;;
31728;SDS011;18309;43.658;1.312;2023-11-18T06:16:44;21.33;;;6.45;;
31728;SDS011;18309;43.658;1.312;2023-11-18T06:19:10;17.42;;;6.05;;
31728;SDS011;18309;43.658;1.312;2023-11-18T06:21:36;21.10;;;6.00;;
31728;SDS011;18309;43.658;1.312;2023-11-18T06:24:02;16.30;;;6.45;;
31728;SDS011;18309;43.658;1.312;2023-11-18T06:26:30;13.60;;;6.32;;
31728;SDS011;18309;43.658;1.312;2023-11-18T06:28:56;16.30;;;6.43;;
31728;SDS011;18309;43.658;1.312;2023-11-18T06:31:22;15.95;;;6.82;;
31728;SDS011;18309;43.658;1.312;2023-11-18T06:33:49;15.13;;;6.57;;
31728;SDS011;18309;43.658;1.312;2023-11-18T06:38:51;15.93;;;6.75;;
31728;SDS011;18309;43.658;1.312;2023-11-18T06:41:18;21.60;;;7.22;;
31728;SDS011;18309;43.658;1.312;2023-11-18T06:43:48;17.75;;;7.22;;
31728;SDS011;18309;43.658;1.312;2023-11-18T06:46:26;11.75;;;6.28;;
31728;SDS011;18309;43.658;1.312;2023-11-18T06:48:58;14.27;;;6.78;;
31728;SDS011;18309;43.658;1.312;2023-11-18T06:51:28;18.65;;;7.45;;
31728;SDS011;18309;43.658;1.312;2023-11-18T06:53:54;16.02;;;6.80;;
31728;SDS011;18309;43.658;1.312;2023-11-18T06:56:21;16.20;;;7.35;;
31728;SDS011;18309;43.658;1.312;2023-11-18T06:58:47;16.70;;;6.95;;
31728;SDS011;18309;43.658;1.312;2023-11-18T07:01:13;16.20;;;7.05;;
31728;SDS011;18309;43.658;1.312;2023-11-18T07:03:43;16.77;;;7.00;;
31728;SDS011;18309;43.658;1.312;2023-11-18T07:06:10;19.88;;;7.30;;
31728;SDS011;18309;43.658;1.312;2023-11-18T07:08:36;19.20;;;7.15;;
31728;SDS011;18309;43.658;1.312;2023-11-18T07:11:02;19.90;;;7.68;;
31728;SDS011;18309;43.658;1.312;2023-11-18T07:13:28;15.10;;;7.53;;
31728;SDS011;18309;43.658;1.312;2023-11-18T07:15:54;20.10;;;7.72;;
31728;SDS011;18309;43.658;1.312;2023-11-18T07:18:22;23.67;;;7.60;;
31728;SDS011;18309;43.658;1.312;2023-11-18T07:20:48;14.75;;;7.00;;
31728;SDS011;18309;43.658;1.312;2023-11-18T07:23:16;16.33;;;7.30;;
31728;SDS011;18309;43.658;1.312;2023-11-18T07:25:43;17.95;;;7.32;;
31728;SDS011;18309;43.658;1.312;2023-11-18T07:28:09;20.42;;;7.10;;
31728;SDS011;18309;43.658;1.312;2023-11-18T07:30:36;16.55;;;7.20;;
31728;SDS011;18309;43.658;1.312;2023-11-18T07:33:02;17.73;;;7.47;;
31728;SDS011;18309;43.658;1.312;2023-11-18T07:35:28;20.63;;;7.55;;
31728;SDS011;18309;43.658;1.312;2023-11-18T07:37:55;15.70;;;6.40;;
31728;SDS011;18309;43.658;1.312;2023-11-18T07:40:21;17.80;;;7.60;;
31728;SDS011;18309;43.658;1.312;2023-11-18T07:42:55;16.83;;;6.72;;
31728;SDS011;18309;43.658;1.312;2023-11-18T07:45:26;16.27;;;7.45;;
31728;SDS011;18309;43.658;1.312;2023-11-18T07:47:54;18.92;;;6.65;;
31728;SDS011;18309;43.658;1.312;2023-11-18T07:50:20;12.38;;;6.35;;
31728;SDS011;18309;43.658;1.312;2023-11-18T07:52:46;15.25;;;6.57;;
31728;SDS011;18309;43.658;1.312;2023-11-18T07:55:13;26.63;;;6.43;;
31728;SDS011;18309;43.658;1.312;2023-11-18T07:57:39;22.80;;;5.95;;
31728;SDS011;18309;43.658;1.312;2023-11-18T08:00:06;13.57;;;6.30;;
31728;SDS011;18309;43.658;1.312;2023-11-18T08:02:36;18.38;;;6.55;;
31728;SDS011;18309;43.658;1.312;2023-11-18T08:05:02;15.95;;;6.03;;
31728;SDS011;18309;43.658;1.312;2023-11-18T08:07:28;18.77;;;5.85;;
31728;SDS011;18309;43.658;1.312;2023-11-18T08:09:54;11.60;;;5.20;;
31728;SDS011;18309;43.658;1.312;2023-11-18T08:12:20;15.60;;;5.38;;
31728;SDS011;18309;43.658;1.312;2023-11-18T08:14:45;21.83;;;5.70;;
31728;SDS011;18309;43.658;1.312;2023-11-18T08:17:12;20.50;;;5.68;;
31728;SDS011;18309;43.658;1.312;2023-11-18T08:19:38;17.48;;;5.45;;
31728;SDS011;18309;43.658;1.312;2023-11-18T08:22:04;12.45;;;4.95;;
31728;SDS011;18309;43.658;1.312;2023-11-18T08:24:31;15.43;;;5.72;;
31728;SDS011;18309;43.658;1.312;2023-11-18T08:26:58;12.18;;;5.03;;
31728;SDS011;18309;43.658;1.312;2023-11-18T08:29:24;14.77;;;5.32;;
31728;SDS011;18309;43.658;1.312;2023-11-18T08:31:53;19.83;;;6.25;;
31728;SDS011;18309;43.658;1.312;2023-11-18T08:34:19;16.90;;;5.32;;
31728;SDS011;18309;43.658;1.312;2023-11-18T08:36:44;16.05;;;6.40;;
31728;SDS011;18309;43.658;1.312;2023-11-18T08:39:10;21.08;;;7.15;;
31728;SDS011;18309;43.658;1.312;2023-11-18T08:41:36;14.63;;;6.00;;
31728;SDS011;18309;43.658;1.312;2023-11-18T08:44:03;12.40;;;5.75;;
31728;SDS011;18309;43.658;1.312;2023-11-18T08:46:29;14.10;;;6.10;;
31728;SDS011;18309;43.658;1.312;2023-11-18T08:48:55;10.82;;;5.43;;
31728;SDS011;18309;43.658;1.312;2023-11-18T08:51:21;16.38;;;5.13;;
31728;SDS011;18309;43.658;1.312;2023-11-18T08:53:46;15.30;;;5.47;;
31728;SDS011;18309;43.658;1.312;2023-11-18T08:56:13;14.43;;;4.70;;
31728;SDS011;18309;43.658;1.312;2023-11-18T08:58:42;10.90;;;5.10;;
31728;SDS011;18309;43.658;1.312;2023-11-18T09:01:10;14.77;;;5.43;;
31728;SDS011;18309;43.658;1.312;2023-11-18T09:03:39;12.02;;;4.70;;
31728;SDS011;18309;43.658;1.312;2023-11-18T09:06:13;20.08;;;4.90;;
31728;SDS011;18309;43.658;1.312;2023-11-18T09:08:43;10.55;;;4.50;;
31728;SDS011;18309;43.658;1.312;2023-11-18T09:11:10;20.25;;;5.57;;
31728;SDS011;18309;43.658;1.312;2023-11-18T09:13:42;13.00;;;4.88;;
31728;SDS011;18309;43.658;1.312;2023-11-18T09:16:10;14.25;;;4.55;;
31728;SDS011;18309;43.658;1.312;2023-11-18T09:18:40;14.48;;;4.47;;
31728;SDS011;18309;43.658;1.312;2023-11-18T09:21:10;21.33;;;5.63;;
31728;SDS011;18309;43.658;1.312;2023-11-18T09:23:40;13.98;;;4.50;;
31728;SDS011;18309;43.658;1.312;2023-11-18T09:26:07;11.95;;;4.50;;
31728;SDS011;18309;43.658;1.312;2023-11-18T09:28:34;14.93;;;4.95;;
31728;SDS011;18309;43.658;1.312;2023-11-18T09:31:00;18.25;;;4.88;;
31728;SDS011;18309;43.658;1.312;2023-11-18T09:33:29;18.23;;;5.05;;
31728;SDS011;18309;43.658;1.312;2023-11-18T09:38:26;12.73;;;4.18;;
31728;SDS011;18309;43.658;1.312;2023-11-18T09:40:56;11.32;;;4.30;;
31728;SDS011;18309;43.658;1.312;2023-11-18T09:43:28;19.20;;;5.28;;
31728;SDS011;18309;43.658;1.312;2023-11-18T09:46:02;11.85;;;3.47;;
31728;SDS011;18309;43.658;1.312;2023-11-18T09:48:42;14.27;;;3.72;;
31728;SDS011;18309;43.658;1.312;2023-11-18T09:51:22;14.55;;;3.53;;
31728;SDS011;18309;43.658;1.312;2023-11-18T09:53:55;11.32;;;2.95;;
31728;SDS011;18309;43.658;1.312;2023-11-18T09:56:35;12.77;;;3.38;;
31728;SDS011;18309;43.658;1.312;2023-11-18T09:59:35;8.85;;;2.90;;
31728;SDS011;18309;43.658;1.312;2023-11-18T10:02:24;13.00;;;3.92;;
31728;SDS011;18309;43.658;1.312;2023-11-18T10:04:50;11.23;;;3.65;;
31728;SDS011;18309;43.658;1.312;2023-11-18T10:07:23;12.63;;;3.97;;
31728;SDS011;18309;43.658;1.312;2023-11-18T10:09:57;9.30;;;3.75;;
31728;SDS011;18309;43.658;1.312;2023-11-18T10:12:23;10.07;;;4.13;;
31728;SDS011;18309;43.658;1.312;2023-11-18T10:14:51;10.23;;;3.55;;
31728;SDS011;18309;43.658;1.312;2023-11-18T10:17:17;8.50;;;3.42;;
31728;SDS011;18309;43.658;1.312;2023-11-18T10:19:56;13.70;;;3.50;;
31728;SDS011;18309;43.658;1.312;2023-11-18T10:22:37;15.23;;;3.35;;
31728;SDS011;18309;43.658;1.312;2023-11-18T10:25:03;7.07;;;2.72;;
31728;SDS011;18309;43.658;1.312;2023-11-18T10:27:31;9.77;;;3.25;;
31728;SDS011;18309;43.658;1.312;2023-11-18T10:30:05;12.70;;;3.72;;
31728;SDS011;18309;43.658;1.312;2023-11-18T10:32:44;12.88;;;2.97;;
31728;SDS011;18309;43.658;1.312;2023-11-18T10:35:30;13.82;;;3.58;;
31728;SDS011;18309;43.658;1.312;2023-11-18T10:37:57;16.23;;;3.92;;
31728;SDS011;18309;43.658;1.312;2023-11-18T10:40:25;17.10;;;3.70;;
31728;SDS011;18309;43.658;1.312;2023-11-18T10:42:52;9.23;;;3.33;;
31728;SDS011;18309;43.658;1.312;2023-11-18T10:45:24;15.02;;;3.10;;
31728;SDS011;18309;43.658;1.312;2023-11-18T10:47:52;7.40;;;3.28;;
31728;SDS011;18309;43.658;1.312;2023-11-18T10:50:21;10.18;;;3.22;;
31728;SDS011;18309;43.658;1.312;2023-11-18T10:52:56;9.50;;;3.30;;
31728;SDS011;18309;43.658;1.312;2023-11-18T10:55:34;11.30;;;3.70;;
31728;SDS011;18309;43.658;1.312;2023-11-18T10:58:03;12.52;;;3.50;;
31728;SDS011;18309;43.658;1.312;2023-11-18T11:00:51;17.30;;;3.47;;
31728;SDS011;18309;43.658;1.312;2023-11-18T11:03:25;11.70;;;2.85;;
31728;SDS011;18309;43.658;1.312;2023-11-18T11:05:51;15.52;;;3.10;;
31728;SDS011;18309;43.658;1.312;2023-11-18T11:08:19;8.18;;;2.80;;
31728;SDS011;18309;43.658;1.312;2023-11-18T11:10:45;10.02;;;2.50;;
31728;SDS011;18309;43.658;1.312;2023-11-18T11:13:13;9.52;;;2.58;;
31728;SDS011;18309;43.658;1.312;2023-11-18T11:15:43;7.25;;;2.67;;
31728;SDS011;18309;43.658;1.312;2023-11-18T11:18:11;11.60;;;2.70;;
31728;SDS011;18309;43.658;1.312;2023-11-18T11:32:02;6.72;;;1.50;;
31728;SDS011;18309;43.658;1.312;2023-11-18T11:34:53;3.92;;;1.08;;
31728;SDS011;18309;43.658;1.312;2023-11-18T11:37:24;5.00;;;1.27;;
31728;SDS011;18309;43.658;1.312;2023-11-18T11:39:55;7.53;;;1.17;;
31728;SDS011;18309;43.658;1.312;2023-11-18T11:42:23;3.15;;;1.30;;
31728;SDS011;18309;43.658;1.312;2023-11-18T11:44:49;4.10;;;1.23;;
31728;SDS011;18309;43.658;1.312;2023-11-18T11:47:18;3.67;;;1.25;;
31728;SDS011;18309;43.658;1.312;2023-11-18T11:49:50;3.77;;;1.63;;
31728;SDS011;18309;43.658;1.312;2023-11-18T11:52:26;6.22;;;1.50;;
31728;SDS011;18309;43.658;1.312;2023-11-18T11:54:58;8.98;;;1.63;;
31728;SDS011;18309;43.658;1.312;2023-11-18T11:57:32;6.95;;;1.83;;
31728;SDS011;18309;43.658;1.312;2023-11-18T12:00:02;4.30;;;1.27;;
31728;SDS011;18309;43.658;1.312;2023-11-18T12:02:40;9.10;;;1.60;;
31728;SDS011;18309;43.658;1.312;2023-11-18T12:05:17;5.40;;;2.45;;
31728;SDS011;18309;43.658;1.312;2023-11-18T12:07:44;5.80;;;1.90;;
31728;SDS011;18309;43.658;1.312;2023-11-18T12:10:12;5.03;;;1.60;;
31728;SDS011;18309;43.658;1.312;2023-11-18T12:12:45;12.52;;;2.22;;
31728;SDS011;18309;43.658;1.312;2023-11-18T12:15:11;3.15;;;1.08;;
31728;SDS011;18309;43.658;1.312;2023-11-18T12:20:39;6.80;;;1.27;;
31728;SDS011;18309;43.658;1.312;2023-11-18T12:23:10;4.03;;;1.50;;
31728;SDS011;18309;43.658;1.312;2023-11-18T12:25:48;9.30;;;1.17;;
31728;SDS011;18309;43.658;1.312;2023-11-18T12:28:19;5.00;;;1.40;;
31728;SDS011;18309;43.658;1.312;2023-11-18T12:30:52;7.03;;;1.48;;
31728;SDS011;18309;43.658;1.312;2023-11-18T12:33:24;7.53;;;1.55;;
31728;SDS011;18309;43.658;1.312;2023-11-18T12:38:48;6.88;;;1.75;;
31728;SDS011;18309;43.658;1.312;2023-11-18T12:41:34;6.25;;;1.85;;
31728;SDS011;18309;43.658;1.312;2023-11-18T12:46:48;3.83;;;1.60;;
31728;SDS011;18309;43.658;1.312;2023-11-18T12:49:18;10.88;;;1.90;;
31728;SDS011;18309;43.658;1.312;2023-11-18T12:51:55;7.63;;;1.25;;
31728;SDS011;18309;43.658;1.312;2023-11-18T12:54:22;5.75;;;1.17;;
31728;SDS011;18309;43.658;1.312;2023-11-18T12:56:54;4.80;;;1.45;;
31728;SDS011;18309;43.658;1.312;2023-11-18T12:59:21;5.10;;;1.23;;
31728;SDS011;18309;43.658;1.312;2023-11-18T13:01:48;6.13;;;1.77;;
31728;SDS011;18309;43.658;1.312;2023-11-18T13:04:21;11.73;;;3.08;;
31728;SDS011;18309;43.658;1.312;2023-11-18T13:06:49;6.57;;;1.58;;
31728;SDS011;18309;43.658;1.312;2023-11-18T13:09:16;10.70;;;3.35;;
31728;SDS011;18309;43.658;1.312;2023-11-18T13:11:55;4.38;;;1.27;;
31728;SDS011;18309;43.658;1.312;2023-11-18T13:14:28;6.30;;;1.38;;
31728;SDS011;18309;43.658;1.312;2023-11-18T13:17:01;7.20;;;1.60;;
31728;SDS011;18309;43.658;1.312;2023-11-18T13:19:30;5.00;;;1.00;;
31728;SDS011;18309;43.658;1.312;2023-11-18T13:22:02;5.53;;;1.60;;
31728;SDS011;18309;43.658;1.312;2023-11-18T13:26:56;8.88;;;1.08;;
31728;SDS011;18309;43.658;1.312;2023-11-18T13:29:23;5.10;;;1.45;;
31728;SDS011;18309;43.658;1.312;2023-11-18T13:31:52;8.77;;;1.38;;
31728;SDS011;18309;43.658;1.312;2023-11-18T13:34:18;18.77;;;1.85;;
31728;SDS011;18309;43.658;1.312;2023-11-18T13:36:45;3.35;;;1.17;;
31728;SDS011;18309;43.658;1.312;2023-11-18T13:39:18;4.53;;;1.38;;
31728;SDS011;18309;43.658;1.312;2023-11-18T13:41:47;9.77;;;2.45;;
31728;SDS011;18309;43.658;1.312;2023-11-18T13:44:35;4.93;;;1.48;;
31728;SDS011;18309;43.658;1.312;2023-11-18T13:47:03;5.13;;;1.42;;
31728;SDS011;18309;43.658;1.312;2023-11-18T13:49:36;10.07;;;1.30;;
31728;SDS011;18309;43.658;1.312;2023-11-18T13:52:05;4.05;;;1.45;;
31728;SDS011;18309;43.658;1.312;2023-11-18T13:54:33;3.83;;;1.42;;
31728;SDS011;18309;43.658;1.312;2023-11-18T13:57:00;4.57;;;0.88;;
31728;SDS011;18309;43.658;1.312;2023-11-18T13:59:28;3.70;;;1.30;;
31728;SDS011;18309;43.658;1.312;2023-11-18T14:01:54;4.88;;;1.20;;
31728;SDS011;18309;43.658;1.312;2023-11-18T14:04:26;2.72;;;1.30;;
31728;SDS011;18309;43.658;1.312;2023-11-18T14:06:58;5.82;;;1.25;;
31728;SDS011;18309;43.658;1.312;2023-11-18T14:09:34;6.93;;;1.48;;
31728;SDS011;18309;43.658;1.312;2023-11-18T14:12:09;5.75;;;1.77;;
31728;SDS011;18309;43.658;1.312;2023-11-18T14:14:36;5.30;;;1.10;;
31728;SDS011;18309;43.658;1.312;2023-11-18T14:17:02;5.22;;;1.20;;
31728;SDS011;18309;43.658;1.312;2023-11-18T14:19:32;4.75;;;1.05;;
31728;SDS011;18309;43.658;1.312;2023-11-18T14:22:01;5.90;;;1.63;;
31728;SDS011;18309;43.658;1.312;2023-11-18T14:24:32;4.28;;;1.48;;
31728;SDS011;18309;43.658;1.312;2023-11-18T14:26:58;8.18;;;1.27;;
31728;SDS011;18309;43.658;1.312;2023-11-18T14:29:24;4.60;;;1.02;;
31728;SDS011;18309;43.658;1.312;2023-11-18T14:31:50;4.85;;;1.38;;
31728;SDS011;18309;43.658;1.312;2023-11-18T14:34:16;4.85;;;1.05;;
31728;SDS011;18309;43.658;1.312;2023-11-18T14:36:43;2.47;;;1.13;;
31728;SDS011;18309;43.658;1.312;2023-11-18T14:39:09;4.75;;;1.40;;
31728;SDS011;18309;43.658;1.312;2023-11-18T14:41:38;4.95;;;1.58;;
31728;SDS011;18309;43.658;1.312;2023-11-18T14:44:04;8.80;;;1.60;;
31728;SDS011;18309;43.658;1.312;2023-11-18T14:46:30;5.40;;;1.70;;
31728;SDS011;18309;43.658;1.312;2023-11-18T14:48:57;3.97;;;1.42;;
31728;SDS011;18309;43.658;1.312;2023-11-18T14:51:23;3.05;;;1.08;;
31728;SDS011;18309;43.658;1.312;2023-11-18T14:53:48;5.03;;;1.17;;
31728;SDS011;18309;43.658;1.312;2023-11-18T14:56:14;7.60;;;1.40;;
31728;SDS011;18309;43.658;1.312;2023-11-18T14:58:40;4.32;;;1.45;;
31728;SDS011;18309;43.658;1.312;2023-11-18T15:01:07;7.35;;;1.45;;
31728;SDS011;18309;43.658;1.312;2023-11-18T15:03:35;5.13;;;1.80;;
31728;SDS011;18309;43.658;1.312;2023-11-18T15:06:01;5.57;;;1.20;;
31728;SDS011;18309;43.658;1.312;2023-11-18T15:08:28;8.00;;;1.83;;
31728;SDS011;18309;43.658;1.312;2023-11-18T15:10:55;9.30;;;1.90;;